Time;durP1;ratioP1;P1;durP2;ratioP2;P2;SDS_P1;SDS_P2;PMS_P1;PMS_P2;Temp;Humidity;BMP_temperature;BMP_pressure;BME280_temperature;BME280_humidity;BME280_pressure;Samples;Min_cycle;Max_cycle;Signal;HPM_P1;HPM_P2
2022/04/27 00:01:10;;;;;;;8.17;7.40;;;;;;;6.14;88.84;100629.38;5057420;28;20235;-80
2022/04/27 00:03:37;;;;;;;7.40;6.60;;;;;;;6.03;89.41;100630.22;5058554;28;20218;-80
2022/04/27 00:06:03;;;;;;;7.27;6.60;;;;;;;5.90;89.25;100619.75;5058764;28;20259;-80
2022/04/27 00:08:29;;;;;;;7.23;6.23;;;;;;;5.94;89.31;100613.72;5057427;28;20221;-79
2022/04/27 00:10:57;;;;;;;7.20;6.60;;;;;;;5.88;89.38;100613.72;5057305;28;20226;-80
2022/04/27 00:13:24;;;;;;;8.10;7.00;;;;;;;5.84;89.83;100601.63;5057858;28;20221;-80
2022/04/27 00:15:50;;;;;;;7.10;6.40;;;;;;;5.87;89.73;100606.81;5058123;28;20205;-80
2022/04/27 00:18:19;;;;;;;8.33;7.40;;;;;;;5.80;90.18;100599.88;5057499;28;20251;-80
2022/04/27 00:20:46;;;;;;;8.37;6.87;;;;;;;5.75;89.94;100601.59;5056109;28;20226;-80
2022/04/27 00:23:12;;;;;;;8.23;6.37;;;;;;;5.74;89.98;100592.09;5048995;28;20202;-80
2022/04/27 00:25:39;;;;;;;7.50;6.80;;;;;;;5.70;90.10;100593.78;5057136;28;20670;-79
2022/04/27 00:28:07;;;;;;;8.37;7.53;;;;;;;5.71;90.66;100589.50;5057170;28;20737;-80
2022/04/27 00:30:33;;;;;;;10.63;7.27;;;;;;;5.63;90.71;100586.88;5056796;28;20233;-80
2022/04/27 00:33:00;;;;;;;9.40;7.43;;;;;;;5.59;91.04;100574.78;5057144;28;20206;-80
2022/04/27 00:35:27;;;;;;;7.57;6.90;;;;;;;5.61;91.06;100574.78;5057232;28;20245;-80
2022/04/27 00:37:53;;;;;;;8.67;7.03;;;;;;;5.55;91.49;100570.47;5056269;28;20898;-80
2022/04/27 00:40:20;;;;;;;8.50;7.13;;;;;;;5.54;91.75;100573.91;5056226;28;20591;-80
2022/04/27 00:42:46;;;;;;;7.87;7.07;;;;;;;5.52;91.01;100576.47;5057381;28;20205;-80
2022/04/27 00:45:14;;;;;;;8.30;7.50;;;;;;;5.50;91.64;100569.56;5056756;28;20228;-80
2022/04/27 00:47:40;;;;;;;9.17;7.10;;;;;;;5.48;91.31;100576.47;5056695;28;20205;-80
2022/04/27 00:50:09;;;;;;;7.33;6.70;;;;;;;5.49;91.90;100565.22;5050442;28;20233;-79
2022/04/27 00:52:35;;;;;;;9.80;7.60;;;;;;;5.46;92.05;100568.69;5053282;28;20633;-81
2022/04/27 00:55:02;;;;;;;9.07;8.17;;;;;;;5.44;92.09;100557.47;5036438;28;20202;-80
2022/04/27 00:57:29;;;;;;;8.10;7.30;;;;;;;5.47;91.73;100556.59;5036836;28;20214;-79
2022/04/27 00:59:55;;;;;;;8.10;6.63;;;;;;;5.52;91.79;100560.09;5034425;28;20264;-79
2022/04/27 01:02:23;;;;;;;7.80;7.00;;;;;;;5.51;91.45;100573.88;5036762;28;20218;-80
2022/04/27 01:04:50;;;;;;;8.27;6.77;;;;;;;5.52;91.79;100578.19;5036622;28;20218;-79
2022/04/27 01:07:17;;;;;;;8.47;7.70;;;;;;;5.54;90.90;100586.84;5036323;28;20206;-80
2022/04/27 01:09:43;;;;;;;7.43;6.70;;;;;;;5.56;91.43;100604.09;5035605;28;20234;-79
2022/04/27 01:12:10;;;;;;;15.37;7.87;;;;;;;5.55;91.26;100597.22;5036789;28;20203;-80
2022/04/27 01:14:48;;;;;;;8.17;7.47;;;;;;;5.65;91.11;100599.81;5035971;28;20209;-80
2022/04/27 01:17:15;;;;;;;7.33;6.73;;;;;;;5.55;90.72;100604.97;5036586;28;20204;-80
2022/04/27 01:19:51;;;;;;;8.47;7.67;;;;;;;5.48;91.19;100605.81;5090798;22;20273;-89
2022/04/27 01:22:21;;;;;;;8.33;7.33;;;;;;;5.44;91.81;100588.53;5080069;28;20173;-90
2022/04/27 01:24:49;;;;;;;8.77;7.87;;;;;;;5.41;91.89;100583.34;5078329;28;20213;-82
2022/04/27 01:27:15;;;;;;;10.60;7.87;;;;;;;5.37;91.91;100579.00;5055692;28;20263;-83
2022/04/27 01:29:42;;;;;;;8.77;7.97;;;;;;;5.29;92.43;100567.75;5054504;28;20279;-84
2022/04/27 01:32:08;;;;;;;10.43;7.53;;;;;;;5.21;93.00;100572.88;5054910;28;20200;-84
2022/04/27 01:34:34;;;;;;;8.63;7.47;;;;;;;5.20;93.22;100573.75;5051960;28;20213;-84
2022/04/27 01:39:43;;;;;;;7.53;6.67;;;;;;;5.17;93.49;100571.13;5052553;28;20228;-83
2022/04/27 01:42:09;;;;;;;10.43;8.40;;;;;;;5.13;93.53;100567.69;5054015;28;20251;-84
2022/04/27 01:44:35;;;;;;;9.00;8.20;;;;;;;5.11;94.15;100553.88;5053520;28;20626;-84
2022/04/27 01:47:02;;;;;;;7.83;7.13;;;;;;;5.11;94.46;100553.00;5053246;28;20615;-84
2022/04/27 01:49:28;;;;;;;10.47;7.53;;;;;;;5.08;94.19;100560.75;5052970;28;20283;-85
2022/04/27 01:54:35;;;;;;;11.17;9.43;;;;;;;5.02;94.37;100551.22;5009674;28;20790;-84
2022/04/27 01:57:03;;;;;;;9.57;8.60;;;;;;;5.02;94.67;100547.78;5053559;28;20613;-84
2022/04/27 01:59:29;;;;;;;10.93;8.77;;;;;;;4.98;94.64;100552.94;5052814;28;20830;-84
2022/04/27 02:01:57;;;;;;;8.77;7.80;;;;;;;4.92;94.88;100560.66;5052716;28;20270;-85
2022/04/27 02:04:23;;;;;;;10.37;9.17;;;;;;;4.88;94.93;100558.06;5052933;28;20206;-85
2022/04/27 02:06:50;;;;;;;9.07;8.27;;;;;;;4.91;95.14;100553.72;5053254;28;20205;-84
2022/04/27 02:09:16;;;;;;;10.53;8.53;;;;;;;4.92;94.82;100555.47;5053030;28;20232;-83
2022/04/27 02:11:42;;;;;;;12.43;8.27;;;;;;;4.95;94.83;100558.06;5053825;28;20255;-85
2022/04/27 02:14:10;;;;;;;11.93;8.73;;;;;;;4.96;94.72;100565.00;5053334;28;20732;-86
2022/04/27 02:16:37;;;;;;;9.83;8.93;;;;;;;4.90;94.69;100571.84;5053281;28;20259;-84
2022/04/27 02:19:04;;;;;;;8.80;8.00;;;;;;;4.83;94.65;100581.28;5052413;28;20632;-84
2022/04/27 02:21:31;;;;;;;10.07;9.10;;;;;;;4.91;94.93;100583.91;5053572;28;20738;-84
2022/04/27 02:23:57;;;;;;;12.07;9.10;;;;;;;4.87;94.78;100582.16;5053274;28;20216;-87
2022/04/27 02:26:24;;;;;;;8.77;8.03;;;;;;;4.98;94.86;100588.28;5053535;28;20713;-84
2022/04/27 02:28:50;;;;;;;8.43;7.70;;;;;;;5.09;94.31;100596.09;5052901;28;20315;-85
2022/04/27 02:31:19;;;;;;;8.83;7.93;;;;;;;5.16;93.55;100611.66;5053297;28;20210;-84
2022/04/27 02:33:45;;;;;;;11.37;8.20;;;;;;;5.04;93.29;100637.47;5053120;28;20746;-85
2022/04/27 02:36:12;;;;;;;9.53;8.33;;;;;;;4.91;93.71;100639.09;5053541;28;20251;-85
2022/04/27 02:38:38;;;;;;;8.77;7.97;;;;;;;5.01;94.29;100621.91;5052868;28;20221;-86
2022/04/27 02:41:05;;;;;;;8.93;7.20;;;;;;;5.11;93.76;100626.31;5052983;28;20205;-85
2022/04/27 02:43:32;;;;;;;8.67;7.70;;;;;;;4.99;93.73;100639.16;5053692;28;20210;-84
2022/04/27 02:45:59;;;;;;;9.87;8.87;;;;;;;4.88;94.82;100627.88;5053381;28;20622;-87
2022/04/27 02:48:27;;;;;;;10.37;9.40;;;;;;;4.84;94.47;100627.00;5050693;28;20279;-85
2022/04/27 02:53:37;;;;;;;10.60;7.60;;;;;;;4.81;95.03;100615.75;5053441;28;20236;-84
2022/04/27 02:56:04;;;;;;;9.50;8.63;;;;;;;4.87;95.08;100623.56;5052835;28;20701;-85
2022/04/27 02:58:31;;;;;;;9.63;8.57;;;;;;;4.90;94.88;100621.00;5053220;28;20222;-84
2022/04/27 03:00:57;;;;;;;9.37;8.60;;;;;;;4.78;94.82;100625.22;5053406;28;20255;-86
2022/04/27 03:03:25;;;;;;;13.40;8.47;;;;;;;4.77;94.91;100630.38;5054844;28;20212;-84
2022/04/27 03:05:53;;;;;;;9.60;8.80;;;;;;;4.72;95.21;100617.41;5053244;28;20284;-83
2022/04/27 03:08:19;;;;;;;12.93;10.27;;;;;;;4.84;95.45;100619.22;5053531;28;20225;-85
2022/04/27 03:10:47;;;;;;;12.00;8.63;;;;;;;4.76;95.69;100614.00;5052912;28;20225;-85
2022/04/27 03:13:13;;;;;;;14.03;9.97;;;;;;;4.74;95.26;100617.44;5054456;28;20237;-84
2022/04/27 03:15:40;;;;;;;11.53;10.37;;;;;;;4.63;95.48;100617.34;5057260;28;20578;-85
2022/04/27 03:18:19;;;;;;;11.37;10.27;;;;;;;4.55;96.51;100604.34;5057654;28;20724;-84
2022/04/27 03:20:47;;;;;;;12.90;10.53;;;;;;;4.57;96.54;100601.78;5056551;28;20224;-86
2022/04/27 03:23:15;;;;;;;10.97;9.87;;;;;;;4.54;96.44;100601.78;5057313;28;20217;-87
2022/04/27 03:25:42;;;;;;;11.30;10.20;;;;;;;4.45;96.71;100599.09;5057187;28;20568;-85
2022/04/27 03:28:08;;;;;;;12.43;10.93;;;;;;;4.34;97.13;100597.28;5056876;28;20205;-88
2022/04/27 03:30:35;;;;;;;11.50;10.40;;;;;;;4.24;97.06;100598.06;5056497;28;20259;-85
2022/04/27 03:33:02;;;;;;;21.57;11.47;;;;;;;4.25;98.01;100594.59;5057471;28;20255;-85
2022/04/27 03:35:28;;;;;;;13.53;11.47;;;;;;;4.30;97.86;100582.59;5057451;28;20206;-85
2022/04/27 03:37:55;;;;;;;12.67;11.37;;;;;;;4.32;98.28;100583.50;5057904;28;20248;-86
2022/04/27 03:40:23;;;;;;;14.87;11.60;;;;;;;4.29;98.66;100575.69;5056771;28;20201;-87
2022/04/27 03:42:49;;;;;;;12.20;11.10;;;;;;;4.20;98.67;100580.75;5057618;28;20213;-85
2022/04/27 03:45:19;;;;;;;13.97;11.40;;;;;;;4.13;99.08;100582.44;5057074;28;20202;-84
2022/04/27 03:47:47;;;;;;;16.10;11.53;;;;;;;4.16;99.60;100573.84;5056987;28;20263;-84
2022/04/27 03:50:21;;;;;;;12.43;11.23;;;;;;;4.13;99.21;100579.00;5055595;28;20644;-86
2022/04/27 03:52:49;;;;;;;12.87;11.77;;;;;;;4.16;99.69;100579.00;5037625;28;20206;-84
2022/04/27 03:55:16;;;;;;;15.90;12.03;;;;;;;4.19;99.78;100579.06;5037976;28;20290;-86
2022/04/27 03:57:44;;;;;;;13.23;11.93;;;;;;;4.18;99.54;100590.22;5037661;28;20574;-86
2022/04/27 04:00:11;;;;;;;17.70;12.20;;;;;;;4.16;99.81;100590.22;5036896;28;20272;-86
2022/04/27 04:02:38;;;;;;;14.73;12.33;;;;;;;4.14;100.00;100586.78;5037460;28;20209;-84
2022/04/27 04:05:05;;;;;;;12.23;11.13;;;;;;;4.15;99.84;100588.47;5039863;28;20206;-85
2022/04/27 04:07:32;;;;;;;13.10;11.53;;;;;;;4.17;99.60;100594.53;5037557;28;20256;-84
2022/04/27 04:09:58;;;;;;;12.40;11.20;;;;;;;4.16;99.94;100607.44;5036447;28;20682;-85
2022/04/27 04:12:25;;;;;;;16.37;11.97;;;;;;;4.18;99.81;100610.88;5037078;28;20241;-85
2022/04/27 04:14:53;;;;;;;13.70;11.17;;;;;;;4.20;99.76;100622.09;5037513;28;20272;-85
2022/04/27 04:17:19;;;;;;;13.83;11.43;;;;;;;4.22;99.58;100620.41;5037213;28;20208;-85
2022/04/27 04:19:46;;;;;;;13.17;11.87;;;;;;;4.28;99.65;100630.81;5049034;28;20290;-85
2022/04/27 04:22:13;;;;;;;12.27;11.13;;;;;;;4.28;99.54;100623.06;5056612;28;20201;-89
2022/04/27 04:28:29;;;;;;;17.60;13.27;;;;;;;4.28;99.74;100637.69;5055730;28;20689;-87
2022/04/27 04:30:12;;;;;;;13.63;11.30;;;;;;;4.22;99.77;100642.78;5056004;28;20236;-85
2022/04/27 04:32:39;;;;;;;13.93;12.50;;;;;;;4.23;100.00;100652.28;5056690;28;20220;-85
2022/04/27 04:35:06;;;;;;;13.87;11.53;;;;;;;4.22;99.88;100646.22;5056479;28;20220;-86
2022/04/27 04:37:32;;;;;;;13.07;11.60;;;;;;;4.24;100.00;100651.44;5056241;28;20698;-86
2022/04/27 04:39:59;;;;;;;13.63;12.23;;;;;;;4.24;100.00;100654.91;5056118;28;20647;-84
2022/04/27 04:42:25;;;;;;;13.60;12.10;;;;;;;4.31;100.00;100651.50;5056238;28;20280;-86
2022/04/27 04:44:52;;;;;;;15.73;11.80;;;;;;;4.36;100.00;100664.47;5056076;28;20876;-85
2022/04/27 04:47:20;;;;;;;13.53;12.20;;;;;;;4.35;100.00;100673.94;5056539;28;20217;-87
2022/04/27 04:49:46;;;;;;;12.83;11.73;;;;;;;4.37;100.00;100677.41;5055292;28;20221;-85
2022/04/27 04:52:12;;;;;;;13.67;12.23;;;;;;;4.44;99.93;100686.13;5056492;28;20228;-86
2022/04/27 04:54:39;;;;;;;14.87;11.53;;;;;;;4.50;99.72;100685.28;5057109;28;20267;-88
2022/04/27 04:57:05;;;;;;;13.47;11.93;;;;;;;4.55;99.41;100697.41;5057228;28;20202;-84
2022/04/27 04:59:32;;;;;;;12.57;11.37;;;;;;;4.58;99.18;100704.34;5055904;28;20279;-86
2022/04/27 05:01:58;;;;;;;13.27;11.93;;;;;;;4.65;99.26;100713.88;5056683;28;20201;-87
2022/04/27 05:04:26;;;;;;;13.63;11.73;;;;;;;4.67;98.78;100726.81;5056460;28;20209;-84
2022/04/27 05:06:52;;;;;;;13.30;10.43;;;;;;;4.69;98.58;100740.63;5057170;28;20622;-87
2022/04/27 05:09:18;;;;;;;12.83;11.20;;;;;;;4.68;98.54;100750.13;5056012;28;20634;-89
2022/04/27 05:11:45;;;;;;;13.43;12.10;;;;;;;4.73;98.42;100750.16;5056743;28;20647;-85
2022/04/27 05:14:11;;;;;;;13.63;11.27;;;;;;;4.74;98.09;100755.34;5056670;28;20212;-87
2022/04/27 05:16:37;;;;;;;13.47;10.70;;;;;;;4.77;97.76;100770.88;5057964;28;20241;-88
2022/04/27 05:19:04;;;;;;;13.23;12.03;;;;;;;4.82;97.47;100777.84;5051486;28;20237;-84
2022/04/27 05:21:32;;;;;;;13.47;11.00;;;;;;;4.84;97.28;100782.16;5054836;28;20198;-83
2022/04/27 05:23:58;;;;;;;12.13;11.03;;;;;;;4.88;97.14;100789.09;5055656;28;20201;-84
2022/04/27 05:26:25;;;;;;;12.17;10.90;;;;;;;4.96;96.96;100789.19;5055517;28;20205;-86
2022/04/27 05:34:19;;;;;;;13.17;11.80;;;;;;;5.13;96.45;100823.84;5052212;28;20397;-84
2022/04/27 05:36:47;;;;;;;12.40;11.17;;;;;;;5.21;95.81;100838.56;5055011;28;20205;-81
2022/04/27 05:39:13;;;;;;;16.00;11.83;;;;;;;5.22;95.44;100856.69;5053786;28;20213;-84
2022/04/27 05:41:41;;;;;;;11.80;10.67;;;;;;;5.25;94.99;100867.09;5054894;28;20201;-83
2022/04/27 05:44:09;;;;;;;13.70;10.70;;;;;;;5.34;95.07;100874.94;5054262;28;20661;-80
2022/04/27 05:46:36;;;;;;;12.63;10.90;;;;;;;5.45;95.08;100872.47;5054092;28;20193;-81
2022/04/27 05:49:02;;;;;;;12.33;11.23;;;;;;;5.51;95.35;100872.50;5053613;28;20628;-84
2022/04/27 05:51:29;;;;;;;12.37;11.03;;;;;;;5.62;95.50;100880.34;5054491;28;20866;-82
2022/04/27 05:53:57;;;;;;;12.10;11.03;;;;;;;5.61;95.06;100889.00;5054910;28;20571;-83
2022/04/27 05:56:24;;;;;;;11.67;10.63;;;;;;;5.57;95.65;100877.75;5054966;28;20193;-82
2022/04/27 05:58:51;;;;;;;14.33;11.87;;;;;;;5.64;95.58;100875.19;5054716;28;20603;-83
2022/04/27 06:01:18;;;;;;;15.47;11.53;;;;;;;5.74;96.25;100867.50;5056120;28;20206;-81
2022/04/27 06:03:44;;;;;;;14.70;12.27;;;;;;;5.86;96.25;100864.13;5060168;28;20225;-81
2022/04/27 06:06:11;;;;;;;12.73;11.17;;;;;;;5.92;94.79;100889.22;5057277;28;20251;-82
2022/04/27 06:08:38;;;;;;;14.23;12.07;;;;;;;5.99;93.91;100913.50;5051309;28;20777;-79
2022/04/27 06:11:05;;;;;;;12.57;11.37;;;;;;;6.15;93.46;100931.75;5053876;28;20695;-82
2022/04/27 06:13:32;;;;;;;11.60;10.50;;;;;;;6.24;92.43;100962.03;5054866;28;20753;-83
2022/04/27 06:15:58;;;;;;;13.80;11.10;;;;;;;6.36;91.27;100982.00;5053288;28;20207;-84
2022/04/27 06:18:28;;;;;;;12.70;11.43;;;;;;;6.47;90.95;101016.66;5054864;28;20230;-81
2022/04/27 06:20:55;;;;;;;11.67;10.47;;;;;;;6.58;90.54;101021.94;5054655;28;20235;-83
2022/04/27 06:23:22;;;;;;;12.67;11.30;;;;;;;6.69;89.58;101047.94;5055025;28;20688;-82
2022/04/27 06:25:49;;;;;;;12.63;11.10;;;;;;;6.70;90.32;101049.66;5055947;28;20277;-82
2022/04/27 06:28:17;;;;;;;11.70;10.60;;;;;;;6.76;89.58;101050.59;5057790;28;20227;-82
2022/04/27 06:30:43;;;;;;;12.33;11.03;;;;;;;6.81;89.57;101070.50;5056664;28;20270;-84
2022/04/27 06:33:10;;;;;;;13.83;10.87;;;;;;;6.94;88.39;101106.09;5055382;28;20194;-84
2022/04/27 06:35:37;;;;;;;12.37;10.77;;;;;;;7.00;87.72;101126.00;5056877;28;20198;-83
2022/04/27 06:38:03;;;;;;;14.83;10.83;;;;;;;6.99;87.44;101147.63;5056077;28;20701;-84
2022/04/27 06:40:30;;;;;;;11.80;10.80;;;;;;;6.96;86.97;101148.50;5053681;28;20664;-82
2022/04/27 06:42:57;;;;;;;14.77;11.20;;;;;;;7.03;87.34;101139.00;5056641;28;20253;-83
2022/04/27 06:45:31;;;;;;;11.77;10.53;;;;;;;6.93;86.40;101149.31;5056368;28;20295;-87
2022/04/27 06:47:58;;;;;;;19.90;11.80;;;;;;;6.99;86.95;101153.69;5055609;28;20188;-84
2022/04/27 06:50:25;;;;;;;12.00;10.83;;;;;;;7.02;87.07;101166.69;5055144;28;20228;-84
2022/04/27 06:52:52;;;;;;;15.27;10.73;;;;;;;7.14;85.64;101184.09;5056988;28;20211;-82
2022/04/27 06:55:19;;;;;;;12.27;11.13;;;;;;;7.06;84.81;101217.78;5056603;28;20211;-84
2022/04/27 06:57:49;;;;;;;12.00;10.70;;;;;;;7.10;83.56;101239.44;5057263;28;20266;-86
2022/04/27 07:00:18;;;;;;;12.90;10.67;;;;;;;7.06;84.91;101222.97;5055012;28;20229;-87
2022/04/27 07:02:46;;;;;;;12.63;11.20;;;;;;;7.22;85.82;101205.78;5055579;28;20202;-84
2022/04/27 07:05:17;;;;;;;11.83;10.80;;;;;;;7.36;86.09;101195.50;5057013;28;20263;-84
2022/04/27 07:07:44;;;;;;;15.80;10.93;;;;;;;7.60;86.59;101179.16;5055307;28;20253;-84
2022/04/27 07:10:11;;;;;;;12.13;10.53;;;;;;;7.56;83.34;101242.38;5055728;28;20231;-84
2022/04/27 07:12:38;;;;;;;12.77;11.47;;;;;;;7.49;83.66;101271.75;5056326;28;20203;-83
2022/04/27 07:15:06;;;;;;;11.43;10.43;;;;;;;7.67;84.43;101268.41;5055484;28;20230;-83
2022/04/27 07:17:32;;;;;;;12.57;11.27;;;;;;;7.78;83.04;101271.94;5056248;28;20230;-84
2022/04/27 07:20:00;;;;;;;12.33;11.23;;;;;;;7.73;81.88;101308.31;5054887;28;20231;-83
2022/04/27 07:22:27;;;;;;;14.73;11.00;;;;;;;7.85;82.49;101317.03;5083424;22;20202;-79
2022/04/27 07:24:53;;;;;;;13.03;11.53;;;;;;;7.95;81.88;101332.72;5088881;28;20202;-80
2022/04/27 07:27:20;;;;;;;12.90;10.73;;;;;;;8.08;82.12;101330.19;5077796;28;20737;-81
2022/04/27 07:29:46;;;;;;;12.50;10.93;;;;;;;8.03;80.64;101373.50;5076868;28;20270;-80
2022/04/27 07:32:13;;;;;;;12.63;11.33;;;;;;;8.18;81.16;101354.50;5076059;28;20610;-80
2022/04/27 07:34:39;;;;;;;12.30;11.20;;;;;;;8.15;79.54;101399.59;5074059;28;20256;-80
2022/04/27 07:37:07;;;;;;;14.23;11.10;;;;;;;8.21;78.49;101423.03;5086960;28;20672;-79
2022/04/27 07:39:34;;;;;;;13.90;10.83;;;;;;;8.30;79.25;101433.47;5092809;28;20267;-79
2022/04/27 07:42:00;;;;;;;12.10;10.93;;;;;;;8.44;79.83;101407.56;5094364;28;20200;-79
2022/04/27 07:44:26;;;;;;;11.50;10.60;;;;;;;8.51;79.53;101414.56;5093722;28;20235;-79
2022/04/27 07:46:53;;;;;;;11.23;10.23;;;;;;;8.44;77.35;101467.41;5093845;28;20206;-80
2022/04/27 07:49:20;;;;;;;12.30;11.20;;;;;;;8.51;78.35;101455.31;5092791;28;20212;-79
2022/04/27 07:51:47;;;;;;;11.27;9.93;;;;;;;8.55;77.47;101476.16;5082173;28;20696;-79
2022/04/27 07:54:15;;;;;;;12.03;10.53;;;;;;;8.59;78.15;101478.78;5074120;28;20580;-79
2022/04/27 07:56:41;;;;;;;11.60;10.60;;;;;;;8.77;78.34;101467.63;5073880;28;20209;-79
2022/04/27 07:59:08;;;;;;;12.43;10.87;;;;;;;8.93;78.22;101446.84;5073537;28;20208;-80
2022/04/27 08:01:34;;;;;;;11.67;10.67;;;;;;;8.93;77.32;101483.31;5077268;28;20203;-80
2022/04/27 08:04:01;;;;;;;12.10;10.90;;;;;;;8.98;76.77;101496.38;5077175;28;20221;-79
2022/04/27 08:06:27;;;;;;;12.17;10.93;;;;;;;9.00;76.39;101520.69;5078384;28;20731;-80
2022/04/27 08:08:53;;;;;;;11.23;10.33;;;;;;;9.11;76.46;101520.72;5085630;28;20678;-80
2022/04/27 08:11:22;;;;;;;13.50;11.97;;;;;;;8.98;76.50;101522.41;5085788;28;20231;-80
2022/04/27 08:13:49;;;;;;;10.87;9.97;;;;;;;9.01;76.18;101529.34;5078407;28;20236;-80
2022/04/27 08:16:16;;;;;;;11.50;10.37;;;;;;;9.00;74.91;101564.94;5076370;28;20696;-80
2022/04/27 08:18:42;;;;;;;11.43;10.23;;;;;;;9.08;73.69;101599.72;5079122;28;20287;-81
2022/04/27 08:21:21;;;;;;;13.40;11.23;;;;;;;9.16;76.01;101550.28;5089649;28;20199;-81
2022/04/27 08:23:48;;;;;;;11.77;10.63;;;;;;;9.32;76.09;101532.97;5099263;28;20279;-80
2022/04/27 08:26:15;;;;;;;12.23;10.97;;;;;;;9.37;74.87;101548.63;5099075;28;20205;-82
2022/04/27 08:28:43;;;;;;;11.83;10.83;;;;;;;9.51;75.13;101555.63;5097334;28;20251;-82
2022/04/27 08:31:12;;;;;;;10.90;10.10;;;;;;;9.63;74.87;101570.44;5113529;28;20294;-80
2022/04/27 08:33:38;;;;;;;11.57;10.53;;;;;;;9.65;74.67;101605.22;5114890;28;20231;-81
2022/04/27 08:36:05;;;;;;;17.07;12.83;;;;;;;9.69;74.77;101622.59;5109358;28;20219;-82
2022/04/27 08:38:34;;;;;;;11.17;10.07;;;;;;;9.70;71.95;101628.69;5097310;28;20205;-80
2022/04/27 08:41:00;;;;;;;11.63;10.40;;;;;;;9.81;72.50;101671.31;5086076;28;20203;-81
2022/04/27 08:43:27;;;;;;;11.60;10.53;;;;;;;10.03;74.64;101587.91;5083249;28;20222;-81
2022/04/27 08:45:56;;;;;;;11.20;10.10;;;;;;;10.11;73.24;101615.75;5079611;28;20206;-81
2022/04/27 08:48:22;;;;;;;11.80;10.80;;;;;;;10.03;72.48;101668.78;5085867;28;20211;-82
2022/04/27 08:50:50;;;;;;;11.23;10.30;;;;;;;10.07;71.81;101684.47;5087539;28;20619;-81
2022/04/27 08:53:16;;;;;;;11.37;10.17;;;;;;;10.13;72.69;101670.56;5078911;28;20235;-80
2022/04/27 08:55:44;;;;;;;11.40;10.33;;;;;;;10.06;72.80;101660.97;5077059;28;20210;-82
2022/04/27 08:58:12;;;;;;;11.77;10.77;;;;;;;10.13;73.00;101642.72;5076232;28;20672;-82
2022/04/27 09:00:39;;;;;;;12.47;10.87;;;;;;;10.01;71.76;101693.97;5074939;28;20207;-81
2022/04/27 09:03:27;;;;;;;11.70;10.70;;;;;;;10.07;71.53;101699.25;5073637;28;20753;-81
2022/04/27 09:05:55;;;;;;;11.50;10.47;;;;;;;10.21;70.05;101734.06;5074657;28;20227;-81
2022/04/27 09:08:24;;;;;;;11.17;10.23;;;;;;;10.36;70.47;101735.00;5073957;28;20211;-81
2022/04/27 09:10:51;;;;;;;10.70;9.70;;;;;;;10.46;70.70;101742.00;5072675;28;20264;-81
2022/04/27 09:13:17;;;;;;;10.83;9.93;;;;;;;10.34;68.34;101805.47;5073797;28;20226;-81
2022/04/27 09:15:44;;;;;;;11.10;9.67;;;;;;;10.44;69.10;101798.56;5074943;28;20633;-81
2022/04/27 09:21:03;;;;;;;10.57;9.60;;;;;;;10.51;66.45;101866.47;5089871;28;20280;-81
2022/04/27 09:23:37;;;;;;;10.60;9.80;;;;;;;10.60;67.99;101864.75;5093408;28;20230;-82
2022/04/27 09:26:19;;;;;;;10.93;10.03;;;;;;;10.69;67.63;101855.22;5095992;28;20213;-81
2022/04/27 09:28:48;;;;;;;11.10;10.27;;;;;;;10.75;67.17;101867.44;5092520;28;20210;-80
2022/04/27 09:31:28;;;;;;;11.00;9.93;;;;;;;10.73;67.75;101856.09;5095923;28;20298;-81
2022/04/27 09:33:59;;;;;;;11.03;10.13;;;;;;;10.87;68.85;101801.28;5095133;28;20221;-82
2022/04/27 09:36:27;;;;;;;12.20;11.00;;;;;;;10.94;68.29;101803.03;5095770;28;20285;-81
2022/04/27 09:38:56;;;;;;;11.00;10.00;;;;;;;11.05;67.50;101816.13;5094911;28;20217;-81
2022/04/27 09:41:42;;;;;;;10.60;9.80;;;;;;;10.91;66.97;101876.19;5095790;28;20243;-81
2022/04/27 09:44:09;;;;;;;11.47;10.37;;;;;;;11.03;66.81;101839.63;5095744;28;20283;-81
2022/04/27 09:46:41;;;;;;;11.80;10.80;;;;;;;11.05;66.58;101857.94;5095774;28;20216;-81
2022/04/27 09:49:14;;;;;;;10.83;9.93;;;;;;;11.03;66.37;101880.56;5093900;28;20641;-82
2022/04/27 09:51:47;;;;;;;11.50;10.60;;;;;;;11.15;65.87;101877.97;5086612;28;20218;-81
2022/04/27 09:54:18;;;;;;;12.00;10.80;;;;;;;11.35;67.10;101848.38;5095196;28;20287;-81
2022/04/27 09:56:49;;;;;;;11.07;10.07;;;;;;;11.46;65.19;101897.19;5094971;28;20668;-82
2022/04/27 09:59:17;;;;;;;11.23;10.30;;;;;;;11.63;65.34;101885.84;5094577;28;20733;-82
2022/04/27 10:01:44;;;;;;;11.83;10.77;;;;;;;11.67;63.83;101912.03;5095526;28;20216;-81
2022/04/27 10:04:12;;;;;;;10.83;9.93;;;;;;;11.75;63.63;101932.06;5095120;28;20222;-82
2022/04/27 10:06:39;;;;;;;10.60;9.83;;;;;;;11.64;62.61;101969.56;5094725;28;20260;-81
2022/04/27 10:09:07;;;;;;;10.13;9.23;;;;;;;11.76;63.37;101946.91;5093882;28;20256;-83
2022/04/27 10:11:34;;;;;;;10.10;9.40;;;;;;;11.85;62.76;101978.28;5094710;28;20282;-82
2022/04/27 10:14:01;;;;;;;10.33;9.33;;;;;;;11.99;63.16;101978.34;5094402;28;20229;-82
2022/04/27 10:16:28;;;;;;;10.70;9.90;;;;;;;12.05;62.54;101973.09;5094882;28;20293;-82
2022/04/27 10:18:55;;;;;;;10.57;9.77;;;;;;;12.02;62.30;101973.97;5093463;28;20262;-82
2022/04/27 10:21:39;;;;;;;10.83;9.73;;;;;;;12.04;62.67;101984.44;5086441;28;20208;-82
2022/04/27 10:24:07;;;;;;;11.53;10.20;;;;;;;11.99;61.12;102014.97;5093281;28;20265;-82
2022/04/27 10:26:34;;;;;;;10.80;9.83;;;;;;;12.17;62.69;101980.97;5094284;28;20286;-82
2022/04/27 10:29:05;;;;;;;11.83;10.37;;;;;;;12.24;60.79;102001.00;5093742;28;20212;-82
2022/04/27 10:32:02;;;;;;;9.70;8.97;;;;;;;12.38;61.08;102026.31;5093876;28;20219;-82
2022/04/27 10:34:29;;;;;;;10.73;9.63;;;;;;;12.38;60.28;102039.41;5093586;28;20709;-82
2022/04/27 10:36:56;;;;;;;10.23;9.13;;;;;;;12.48;60.61;102017.56;5094209;28;20208;-82
2022/04/27 10:39:25;;;;;;;8.63;8.03;;;;;;;12.68;59.12;102041.13;5093641;28;20208;-81
2022/04/27 10:42:17;;;;;;;10.27;9.47;;;;;;;12.79;59.40;102083.91;5077131;28;20253;-82
2022/04/27 10:45:06;;;;;;;10.83;10.03;;;;;;;12.77;59.83;102055.97;5095479;28;20293;-82
2022/04/27 10:47:43;;;;;;;10.27;9.40;;;;;;;12.90;59.49;102044.56;5096004;28;20212;-82
2022/04/27 10:50:23;;;;;;;10.30;9.50;;;;;;;12.92;60.50;102063.75;5092145;28;20202;-82
2022/04/27 10:52:52;;;;;;;10.83;9.53;;;;;;;13.06;60.08;102042.75;5086683;28;20777;-82
2022/04/27 10:55:51;;;;;;;9.93;9.03;;;;;;;12.92;58.41;102050.66;5094591;28;20210;-83
2022/04/27 10:58:19;;;;;;;10.30;9.33;;;;;;;13.11;60.69;102028.75;5095307;28;20202;-82
2022/04/27 11:01:22;;;;;;;11.03;9.90;;;;;;;13.31;60.89;102025.22;5094956;28;20233;-82
2022/04/27 11:04:08;;;;;;;10.20;9.40;;;;;;;13.67;60.09;102018.88;5096116;28;20223;-82
2022/04/27 11:07:25;;;;;;;11.43;10.30;;;;;;;13.72;58.83;102062.63;5093063;28;20261;-81
2022/04/27 11:10:15;;;;;;;12.00;9.73;;;;;;;14.00;59.15;102085.19;5095135;28;20205;-80
2022/04/27 11:12:46;;;;;;;9.63;8.93;;;;;;;13.89;56.52;102129.00;5096306;28;20236;-79
2022/04/27 11:15:16;;;;;;;9.30;8.60;;;;;;;14.05;57.36;102104.41;5096952;28;20249;-82
2022/04/27 11:17:43;;;;;;;9.67;8.80;;;;;;;14.34;57.25;102105.94;5095545;28;20198;-79
2022/04/27 11:20:28;;;;;;;9.60;8.80;;;;;;;14.06;55.40;102142.91;5087615;28;20211;-79
2022/04/27 11:22:55;;;;;;;9.77;8.43;;;;;;;14.33;56.12;102154.13;5086688;28;20285;-80
2022/04/27 11:25:30;;;;;;;9.30;8.53;;;;;;;14.54;54.72;102189.00;5094274;28;20203;-80
2022/04/27 11:27:59;;;;;;;8.50;7.90;;;;;;;14.82;53.90;102210.72;5092062;28;20619;-80
2022/04/27 11:30:26;;;;;;;9.20;8.57;;;;;;;15.51;53.09;102215.31;5091542;28;20678;-81
2022/04/27 11:32:52;;;;;;;9.43;8.60;;;;;;;15.66;49.92;102340.66;5094307;28;20725;-81
2022/04/27 11:35:22;;;;;;;9.30;8.40;;;;;;;16.54;50.22;102382.75;5098662;28;20263;-80
2022/04/27 11:37:49;;;;;;;9.53;8.83;;;;;;;17.29;46.51;102462.66;5099665;28;20630;-81
2022/04/27 11:40:17;;;;;;;9.23;8.53;;;;;;;17.20;46.40;102548.09;5099867;28;20210;-81
2022/04/27 11:42:46;;;;;;;7.73;7.13;;;;;;;19.00;45.32;102553.16;5099406;28;20778;-81
2022/04/27 11:45:18;;;;;;;8.10;7.33;;;;;;;20.83;41.97;102648.78;5102076;28;20202;-81